createdAt,value
2018-06-02T00:00:21.675Z,99.99
2018-06-02T00:01:21.732Z,99.99
2018-06-02T00:02:21.666Z,99.99
2018-06-02T00:03:21.736Z,99.99
2018-06-02T00:04:21.666Z,99.99
2018-06-02T00:05:21.826Z,99.99
2018-06-02T00:06:21.733Z,99.99
2018-06-02T00:07:21.668Z,99.99
2018-06-02T00:08:21.774Z,99.99
2018-06-02T00:09:21.707Z,99.99
2018-06-02T00:10:21.706Z,99.99
2018-06-02T00:11:21.818Z,99.99
2018-06-02T00:12:21.664Z,99.99
2018-06-02T00:13:21.710Z,99.99
2018-06-02T00:14:21.723Z,99.99
2018-06-02T00:15:21.775Z,99.99
2018-06-02T00:16:21.753Z,99.99
2018-06-02T00:17:21.757Z,99.99
2018-06-02T00:18:21.683Z,99.99
2018-06-02T00:19:21.681Z,99.99
2018-06-02T00:20:21.679Z,99.99
2018-06-02T00:21:21.750Z,99.99
2018-06-02T00:22:21.683Z,99.99
2018-06-02T00:23:21.686Z,99.99
2018-06-02T00:24:21.687Z,99.99
2018-06-02T00:25:21.684Z,99.99
2018-06-02T00:26:21.690Z,99.99
2018-06-02T00:27:21.684Z,99.99
2018-06-02T00:28:21.686Z,99.99
2018-06-02T00:29:21.684Z,99.99
2018-06-02T00:30:21.750Z,99.99
2018-06-02T00:31:21.678Z,99.99
2018-06-02T00:32:21.752Z,99.99
2018-06-02T00:33:21.693Z,99.99
2018-06-02T00:34:21.751Z,99.99
2018-06-02T00:35:21.682Z,99.99
2018-06-02T00:36:21.678Z,99.99
2018-06-02T00:37:21.757Z,99.99
2018-06-02T00:38:21.687Z,99.99
2018-06-02T00:39:21.692Z,99.99
2018-06-02T00:40:21.694Z,99.99
2018-06-02T00:41:21.695Z,99.99
2018-06-02T00:42:21.773Z,99.99
2018-06-02T00:43:21.776Z,99.99
2018-06-02T00:44:21.696Z,99.99
2018-06-02T00:45:21.828Z,99.99
2018-06-02T00:46:21.773Z,99.99
2018-06-02T00:47:21.703Z,99.99
2018-06-02T00:48:21.793Z,99.99
2018-06-02T00:49:21.685Z,99.99
2018-06-02T00:50:21.754Z,99.99
2018-06-02T00:51:21.812Z,99.99
2018-06-02T00:52:21.697Z,99.99
2018-06-02T00:53:21.807Z,99.99
2018-06-02T00:54:21.715Z,99.99
2018-06-02T00:55:21.793Z,99.99
2018-06-02T00:56:21.799Z,99.99
2018-06-02T00:57:21.792Z,99.99
2018-06-02T00:58:21.786Z,99.99
2018-06-02T00:59:21.714Z,99.99
2018-06-02T01:00:21.737Z,99.99
2018-06-02T01:01:21.817Z,99.99
2018-06-02T01:02:21.754Z,99.99
2018-06-02T01:03:21.812Z,99.99
2018-06-02T01:04:21.807Z,99.99
2018-06-02T01:05:21.801Z,99.99
2018-06-02T01:06:21.789Z,99.99
2018-06-02T01:07:21.821Z,99.99
2018-06-02T01:08:21.719Z,99.99
2018-06-02T01:09:21.703Z,99.99
2018-06-02T01:10:21.705Z,99.99
2018-06-02T01:11:21.761Z,99.99
2018-06-02T01:12:21.806Z,99.99
2018-06-02T01:13:21.761Z,99.99
2018-06-02T01:14:21.706Z,99.99
2018-06-02T01:15:21.796Z,99.99
2018-06-02T01:16:21.825Z,99.99
2018-06-02T01:17:21.824Z,99.99
2018-06-02T01:18:21.855Z,99.99
2018-06-02T01:19:21.781Z,99.99
2018-06-02T01:20:21.756Z,99.99
2018-06-02T01:21:21.723Z,99.99
2018-06-02T01:22:21.693Z,99.99
2018-06-02T01:23:21.800Z,99.99
2018-06-02T01:24:21.798Z,99.99
2018-06-02T01:25:21.729Z,99.99
2018-06-02T01:26:21.797Z,99.99
2018-06-02T01:27:21.691Z,99.99
2018-06-02T01:28:21.753Z,99.99
2018-06-02T01:29:21.803Z,99.99
2018-06-02T01:30:21.738Z,99.99
2018-06-02T01:31:21.772Z,99.99
2018-06-02T01:32:21.725Z,99.99
2018-06-02T01:33:21.758Z,99.99
2018-06-02T01:34:21.721Z,99.99
2018-06-02T01:35:21.815Z,99.99
2018-06-02T01:36:21.771Z,99.99
2018-06-02T01:37:21.727Z,99.99
2018-06-02T01:38:21.722Z,99.99
2018-06-02T01:39:21.770Z,99.99
2018-06-02T01:40:21.743Z,99.99
2018-06-02T01:41:21.817Z,99.99
2018-06-02T01:42:21.806Z,99.99
2018-06-02T01:43:21.829Z,99.99
2018-06-02T01:44:21.744Z,99.99
2018-06-02T01:45:21.734Z,99.99
2018-06-02T01:46:21.896Z,99.99
2018-06-02T01:47:21.806Z,99.99
2018-06-02T01:48:21.804Z,99.99
2018-06-02T01:49:21.711Z,99.99
2018-06-02T01:50:21.835Z,99.99
2018-06-02T01:51:21.775Z,99.99
2018-06-02T01:52:21.746Z,99.99
2018-06-02T01:53:21.820Z,99.99
2018-06-02T01:54:21.737Z,99.99
2018-06-02T01:55:21.823Z,99.99
2018-06-02T01:56:21.771Z,99.99
2018-06-02T01:57:21.815Z,99.99
2018-06-02T01:58:21.829Z,99.99
2018-06-02T01:59:21.845Z,99.99
2018-06-02T02:00:21.810Z,99.99
2018-06-02T02:01:21.752Z,99.99
2018-06-02T02:02:21.767Z,99.99
2018-06-02T02:03:21.831Z,99.99
2018-06-02T02:04:21.749Z,99.99
2018-06-02T02:05:21.756Z,99.99
2018-06-02T02:06:21.767Z,99.99
2018-06-02T02:07:21.831Z,99.99
2018-06-02T02:08:21.715Z,99.99
2018-06-02T02:09:21.739Z,99.99
2018-06-02T02:10:21.721Z,99.99
2018-06-02T02:11:21.745Z,99.99
2018-06-02T02:12:21.755Z,99.99
2018-06-02T02:13:21.832Z,99.99
2018-06-02T02:14:21.831Z,99.99
2018-06-02T02:15:21.859Z,99.99
2018-06-02T02:16:21.764Z,99.99
2018-06-02T02:17:21.790Z,99.99
2018-06-02T02:18:21.749Z,99.99
2018-06-02T02:19:21.775Z,99.99
2018-06-02T02:20:21.855Z,99.99
2018-06-02T02:21:21.867Z,99.99
2018-06-02T02:22:21.796Z,99.99
2018-06-02T02:23:21.829Z,99.99
2018-06-02T02:24:21.830Z,99.99
2018-06-02T02:25:21.841Z,99.99
2018-06-02T02:26:21.809Z,99.99
2018-06-02T02:27:21.795Z,99.99
2018-06-02T02:28:21.804Z,99.99
2018-06-02T02:29:26.202Z,99.99
2018-06-02T02:30:21.820Z,99.99
2018-06-02T02:31:21.846Z,99.99
2018-06-02T02:32:21.808Z,99.99
2018-06-02T02:33:21.861Z,99.99
2018-06-02T02:34:21.779Z,99.99
2018-06-02T02:35:21.782Z,99.99
2018-06-02T02:36:21.782Z,99.99
2018-06-02T02:37:21.870Z,99.99
2018-06-02T02:38:21.814Z,99.99
2018-06-02T02:39:21.774Z,99.99
2018-06-02T02:40:21.778Z,99.99
2018-06-02T02:41:21.734Z,99.99
2018-06-02T02:42:21.775Z,99.99
2018-06-02T02:43:21.860Z,99.99
2018-06-02T02:44:21.783Z,99.99
2018-06-02T02:45:21.868Z,99.99
2018-06-02T02:46:21.854Z,99.99
2018-06-02T02:47:21.783Z,99.99
2018-06-02T02:48:21.853Z,99.99
2018-06-02T02:49:21.778Z,99.99
2018-06-02T02:50:21.780Z,99.99
2018-06-02T02:51:21.854Z,99.99
2018-06-02T02:52:21.857Z,99.99
2018-06-02T02:53:21.782Z,99.99
2018-06-02T02:54:21.857Z,99.99
2018-06-02T02:55:21.855Z,99.99
2018-06-02T02:56:21.782Z,99.99
2018-06-02T02:57:21.854Z,99.99
2018-06-02T02:58:21.867Z,99.99
2018-06-02T02:59:21.887Z,99.99
2018-06-02T03:00:21.888Z,99.99
2018-06-02T03:01:21.858Z,99.99
2018-06-02T03:02:21.825Z,99.99
2018-06-02T03:03:21.915Z,99.99
2018-06-02T03:04:21.867Z,99.99
2018-06-02T03:05:21.842Z,99.99
2018-06-02T03:06:21.884Z,99.99
2018-06-02T03:07:21.901Z,99.99
2018-06-02T03:08:21.897Z,99.99
2018-06-02T03:09:21.880Z,99.99
2018-06-02T03:10:21.797Z,99.99
2018-06-02T03:11:21.752Z,99.99
2018-06-02T03:12:21.809Z,99.99
2018-06-02T03:13:21.824Z,99.99
2018-06-02T03:14:21.869Z,99.99
2018-06-02T03:15:21.798Z,99.99
2018-06-02T03:16:21.870Z,99.99
2018-06-02T03:17:21.800Z,99.99
2018-06-02T03:18:21.872Z,99.99
2018-06-02T03:19:21.793Z,99.99
2018-06-02T03:20:21.842Z,99.99
2018-06-02T03:21:21.911Z,99.99
2018-06-02T03:22:21.905Z,99.99
2018-06-02T03:24:21.887Z,99.99
2018-06-02T03:25:21.902Z,99.99
2018-06-02T03:26:21.778Z,99.99
2018-06-02T03:27:21.870Z,99.99
2018-06-02T03:28:21.800Z,99.99
2018-06-02T03:29:21.898Z,99.99
2018-06-02T03:30:21.880Z,99.99
2018-06-02T03:31:21.806Z,99.99
2018-06-02T03:32:21.866Z,99.99
2018-06-02T03:33:21.809Z,99.99
2018-06-02T03:34:21.883Z,99.99
2018-06-02T03:35:21.883Z,99.96
2018-06-02T03:36:21.885Z,99.86
2018-06-02T03:37:21.812Z,99.83
2018-06-02T03:38:21.815Z,99.92
2018-06-02T03:39:21.879Z,99.81
2018-06-02T03:40:21.787Z,99.70
2018-06-02T03:41:21.921Z,99.59
2018-06-02T03:42:21.858Z,99.59
2018-06-02T03:43:21.895Z,99.48
2018-06-02T03:44:21.906Z,99.34
2018-06-02T03:45:21.807Z,99.29
2018-06-02T03:46:21.922Z,99.40
2018-06-02T03:47:21.868Z,99.48
2018-06-02T03:48:21.860Z,99.45
2018-06-02T03:49:21.910Z,99.43
2018-06-02T03:50:21.850Z,99.43
2018-06-02T03:51:21.822Z,99.40
2018-06-02T03:52:21.820Z,99.43
2018-06-02T03:53:21.896Z,99.43
2018-06-02T03:54:21.827Z,99.45
2018-06-02T03:55:21.828Z,99.40
2018-06-02T03:56:21.895Z,99.45
2018-06-02T03:57:21.901Z,99.51
2018-06-02T03:58:21.825Z,99.45
2018-06-02T03:59:21.830Z,99.45
2018-06-02T04:00:21.878Z,99.26
2018-06-02T04:01:21.879Z,99.34
2018-06-02T04:02:21.831Z,99.37
2018-06-02T04:03:21.821Z,99.43
2018-06-02T04:04:21.887Z,99.51
2018-06-02T04:05:21.826Z,99.62
2018-06-02T04:06:21.878Z,99.72
2018-06-02T04:07:21.872Z,99.86
2018-06-02T04:08:21.796Z,99.86
2018-06-02T04:09:21.900Z,99.81
2018-06-02T04:10:21.874Z,99.59
2018-06-02T04:11:21.897Z,99.45
2018-06-02T04:12:21.845Z,99.23
2018-06-02T04:13:21.954Z,99.10
2018-06-02T04:14:21.840Z,99.23
2018-06-02T04:15:21.843Z,99.34
2018-06-02T04:16:21.825Z,99.26
2018-06-02T04:17:21.810Z,99.23
2018-06-02T04:18:21.885Z,99.23
2018-06-02T04:19:21.932Z,99.15
2018-06-02T04:20:21.839Z,98.85
2018-06-02T04:21:21.923Z,98.72
2018-06-02T04:22:21.910Z,98.61
2018-06-02T04:23:21.909Z,98.45
2018-06-02T04:24:21.840Z,98.40
2018-06-02T04:25:21.910Z,98.50
2018-06-02T04:26:21.843Z,98.53
2018-06-02T04:27:21.910Z,98.50
2018-06-02T04:28:21.846Z,98.55
2018-06-02T04:29:21.906Z,98.29
2018-06-02T04:30:21.830Z,98.10
2018-06-02T04:31:21.900Z,97.93
2018-06-02T04:32:21.820Z,98.12
2018-06-02T04:33:21.822Z,98.23
2018-06-02T04:34:21.834Z,98.15
2018-06-02T04:35:21.821Z,98.02
2018-06-02T04:36:21.909Z,97.83
2018-06-02T04:37:21.909Z,97.93
2018-06-02T04:38:21.926Z,97.96
2018-06-02T04:39:21.893Z,97.91
2018-06-02T04:40:21.925Z,97.88
2018-06-02T04:41:21.979Z,97.96
2018-06-02T04:42:21.942Z,98.02
2018-06-02T04:43:21.891Z,97.93
2018-06-02T04:44:21.947Z,97.99
2018-06-02T04:45:21.904Z,97.91
2018-06-02T04:46:21.941Z,97.47
2018-06-02T04:47:21.894Z,97.50
2018-06-02T04:48:21.894Z,97.69
2018-06-02T04:49:21.906Z,97.85
2018-06-02T04:50:21.924Z,97.69
2018-06-02T04:51:21.960Z,97.72
2018-06-02T04:52:21.850Z,97.74
2018-06-02T04:53:21.874Z,97.83
2018-06-02T04:54:21.963Z,97.74
2018-06-02T04:55:21.849Z,97.61
2018-06-02T04:56:21.894Z,97.61
2018-06-02T04:57:21.931Z,97.74
2018-06-02T04:58:21.990Z,97.72
2018-06-02T04:59:21.849Z,97.80
2018-06-02T05:00:21.877Z,97.80
2018-06-02T05:01:21.910Z,97.85
2018-06-02T05:02:21.838Z,97.91
2018-06-02T05:03:21.964Z,98.02
2018-06-02T05:04:21.864Z,97.99
2018-06-02T05:05:21.877Z,98.10
2018-06-02T05:06:21.941Z,98.26
2018-06-02T05:07:21.839Z,98.31
2018-06-02T05:08:21.966Z,98.34
2018-06-02T05:09:21.877Z,98.34
2018-06-02T05:10:21.941Z,98.37
2018-06-02T05:11:21.876Z,98.42
2018-06-02T05:12:21.943Z,98.40
2018-06-02T05:13:21.944Z,98.48
2018-06-02T05:14:21.947Z,98.59
2018-06-02T05:15:21.878Z,98.64
2018-06-02T05:16:21.947Z,98.61
2018-06-02T05:17:21.950Z,98.75
2018-06-02T05:18:21.879Z,98.85
2018-06-02T05:19:21.890Z,98.64
2018-06-02T05:20:21.947Z,98.66
2018-06-02T05:21:21.949Z,98.55
2018-06-02T05:22:21.950Z,98.53
2018-06-02T05:23:21.983Z,98.53
2018-06-02T05:24:21.955Z,98.34
2018-06-02T05:25:21.952Z,98.29
2018-06-02T05:26:21.890Z,98.37
2018-06-02T05:27:21.954Z,98.29
2018-06-02T05:28:21.890Z,98.26
2018-06-02T05:29:21.884Z,98.40
2018-06-02T05:30:21.958Z,98.53
2018-06-02T05:31:21.900Z,98.45
2018-06-02T05:32:21.981Z,98.23
2018-06-02T05:33:21.911Z,98.07
2018-06-02T05:34:21.959Z,97.88
2018-06-02T05:35:22.002Z,97.80
2018-06-02T05:36:21.960Z,97.83
2018-06-02T05:37:21.894Z,97.91
2018-06-02T05:38:21.969Z,98.02
2018-06-02T05:39:21.962Z,97.80
2018-06-02T05:40:21.961Z,97.64
2018-06-02T05:41:21.972Z,97.47
2018-06-02T05:42:21.996Z,97.45
2018-06-02T05:43:21.937Z,97.28
2018-06-02T05:44:21.930Z,96.93
2018-06-02T05:45:21.947Z,96.74
2018-06-02T05:46:21.923Z,96.74
2018-06-02T05:47:21.930Z,96.85
2018-06-02T05:48:21.893Z,97.04
2018-06-02T05:49:21.965Z,96.93
2018-06-02T05:50:21.974Z,96.74
2018-06-02T05:51:21.978Z,96.83
2018-06-02T05:52:21.998Z,96.77
2018-06-02T05:53:21.968Z,96.66
2018-06-02T05:54:21.973Z,96.61
2018-06-02T05:55:21.947Z,96.69
2018-06-02T05:56:21.925Z,96.64
2018-06-02T05:57:21.953Z,96.45
2018-06-02T05:58:21.974Z,96.42
2018-06-02T05:59:21.989Z,96.17
2018-06-02T06:00:21.894Z,96.15
2018-06-02T06:01:22.000Z,96.09
2018-06-02T06:02:21.974Z,96.02
2018-06-02T06:03:21.883Z,95.88
2018-06-02T06:04:22.008Z,95.96
2018-06-02T06:05:21.997Z,96.15
2018-06-02T06:06:21.975Z,96.04
2018-06-02T06:07:22.000Z,96.15
2018-06-02T06:08:21.949Z,96.17
2018-06-02T06:09:21.900Z,96.26
2018-06-02T06:10:22.011Z,96.26
2018-06-02T06:11:21.935Z,96.28
2018-06-02T06:12:21.899Z,96.20
2018-06-02T06:13:21.981Z,96.13
2018-06-02T06:14:21.964Z,95.75
2018-06-02T06:15:21.958Z,95.64
2018-06-02T06:16:22.002Z,95.83
2018-06-02T06:17:21.967Z,95.66
2018-06-02T06:18:21.984Z,95.72
2018-06-02T06:19:21.925Z,96.04
2018-06-02T06:20:21.986Z,96.15
2018-06-02T06:21:21.989Z,96.13
2018-06-02T06:22:21.929Z,95.80
2018-06-02T06:23:21.924Z,95.77
2018-06-02T06:24:21.923Z,95.31
2018-06-02T06:25:21.923Z,95.37
2018-06-02T06:26:21.963Z,95.47
2018-06-02T06:27:21.947Z,95.47
2018-06-02T06:28:21.923Z,95.20
2018-06-02T06:29:21.995Z,95.20
2018-06-02T06:30:21.912Z,95.39
2018-06-02T06:31:21.941Z,95.47
2018-06-02T06:32:21.922Z,95.64
2018-06-02T06:33:22.067Z,95.56
2018-06-02T06:34:21.991Z,95.47
2018-06-02T06:35:21.917Z,95.31
2018-06-02T06:36:21.873Z,95.80
2018-06-02T06:37:21.989Z,96.07
2018-06-02T06:38:21.902Z,95.94
2018-06-02T06:39:21.947Z,95.72
2018-06-02T06:40:22.028Z,95.53
2018-06-02T06:41:22.023Z,95.26
2018-06-02T06:42:22.024Z,95.34
2018-06-02T06:43:22.043Z,95.53
2018-06-02T06:44:22.056Z,95.23
2018-06-02T06:45:21.982Z,95.01
2018-06-02T06:46:22.004Z,94.64
2018-06-02T06:47:21.945Z,94.72
2018-06-02T06:48:21.957Z,95.07
2018-06-02T06:49:22.025Z,95.37
2018-06-02T06:50:21.915Z,95.50
2018-06-02T06:51:21.989Z,94.96
2018-06-02T06:52:22.014Z,94.69
2018-06-02T06:53:22.039Z,94.80
2018-06-02T06:54:22.007Z,94.86
2018-06-02T06:55:22.019Z,94.59
2018-06-02T06:56:22.106Z,94.56
2018-06-02T06:57:21.988Z,94.83
2018-06-02T06:58:21.982Z,94.80
2018-06-02T06:59:22.013Z,94.56
2018-06-02T07:00:21.946Z,94.61
2018-06-02T07:01:22.017Z,94.80
2018-06-02T07:02:21.950Z,94.91
2018-06-02T07:03:21.951Z,94.67
2018-06-02T07:04:21.901Z,94.48
2018-06-02T07:05:21.952Z,94.42
2018-06-02T07:06:22.016Z,93.99
2018-06-02T07:07:21.973Z,93.83
2018-06-02T07:08:22.023Z,93.99
2018-06-02T07:09:21.983Z,93.78
2018-06-02T07:10:21.947Z,93.67
2018-06-02T07:11:22.084Z,93.85
2018-06-02T07:12:21.983Z,94.18
2018-06-02T07:13:22.065Z,94.02
2018-06-02T07:14:22.062Z,93.89
2018-06-02T07:15:22.004Z,93.89
2018-06-02T07:16:22.064Z,93.99
2018-06-02T07:17:22.005Z,93.70
2018-06-02T07:18:21.945Z,93.51
2018-06-02T07:19:22.010Z,93.56
2018-06-02T07:20:22.059Z,93.64
2018-06-02T07:21:21.992Z,93.56
2018-06-02T07:22:22.074Z,93.43
2018-06-02T07:23:22.027Z,93.48
2018-06-02T07:24:22.013Z,92.99
2018-06-02T07:25:21.938Z,92.73
2018-06-02T07:26:22.060Z,92.43
2018-06-02T07:27:22.034Z,93.05
2018-06-02T07:28:22.054Z,93.35
2018-06-02T07:29:22.033Z,93.08
2018-06-02T07:30:21.976Z,92.22
2018-06-02T07:31:22.064Z,91.92
2018-06-02T07:32:22.065Z,91.86
2018-06-02T07:33:21.952Z,91.09
2018-06-02T07:34:22.079Z,91.28
2018-06-02T07:35:22.063Z,90.93
2018-06-02T07:36:21.956Z,89.99
2018-06-02T07:37:21.979Z,89.27
2018-06-02T07:38:21.941Z,89.86
2018-06-02T07:39:22.059Z,90.13
2018-06-02T07:40:22.059Z,91.14
2018-06-02T07:41:21.975Z,91.44
2018-06-02T07:42:21.979Z,91.36
2018-06-02T07:43:22.045Z,91.28
2018-06-02T07:44:22.067Z,90.71
2018-06-02T07:45:22.046Z,91.20
2018-06-02T07:46:21.977Z,91.22
2018-06-02T07:47:22.049Z,91.60
2018-06-02T07:48:22.047Z,91.44
2018-06-02T07:49:22.049Z,91.01
2018-06-02T07:50:22.049Z,90.85
2018-06-02T07:51:22.051Z,91.01
2018-06-02T07:52:22.049Z,91.55
2018-06-02T07:53:21.983Z,91.52
2018-06-02T07:54:22.052Z,91.84
2018-06-02T07:55:22.057Z,91.76
2018-06-02T07:56:21.980Z,91.17
2018-06-02T07:57:21.950Z,91.25
2018-06-02T07:58:21.983Z,90.69
2018-06-02T07:59:22.094Z,90.88
2018-06-02T08:00:22.054Z,91.33
2018-06-02T08:01:22.030Z,90.71
2018-06-02T08:02:22.059Z,90.31
2018-06-02T08:03:22.057Z,90.34
2018-06-02T08:04:21.988Z,90.88
2018-06-02T08:05:22.065Z,90.85
2018-06-02T08:06:22.061Z,89.94
2018-06-02T08:07:22.064Z,90.36
2018-06-02T08:08:22.000Z,89.91
2018-06-02T08:09:22.061Z,89.32
2018-06-02T08:10:21.970Z,88.87
2018-06-02T08:11:22.055Z,88.95
2018-06-02T08:12:21.986Z,88.95
2018-06-02T08:13:22.058Z,89.32
2018-06-02T08:14:22.057Z,88.92
2018-06-02T08:15:22.056Z,89.08
2018-06-02T08:16:22.064Z,88.73
2018-06-02T08:17:22.065Z,88.17
2018-06-02T08:18:21.987Z,88.60
2018-06-02T08:19:22.064Z,88.52
2018-06-02T08:20:22.070Z,88.81
2018-06-02T08:21:22.044Z,87.69
2018-06-02T08:22:22.047Z,87.45
2018-06-02T08:23:22.128Z,88.12
2018-06-02T08:24:22.105Z,87.69
2018-06-02T08:25:22.070Z,87.45
2018-06-02T08:26:22.042Z,87.64
2018-06-02T08:27:22.008Z,86.87
2018-06-02T08:28:22.079Z,86.79
2018-06-02T08:29:22.010Z,86.57
2018-06-02T08:30:22.110Z,86.04
2018-06-02T08:31:22.011Z,86.91
2018-06-02T08:32:22.077Z,84.79
2018-06-02T08:33:22.126Z,85.11
2018-06-02T08:34:22.108Z,84.58
2018-06-02T08:35:22.075Z,84.44
2018-06-02T08:36:22.059Z,83.89
2018-06-02T08:37:22.079Z,84.12
2018-06-02T08:38:22.049Z,84.44
2018-06-02T08:39:21.999Z,84.15
2018-06-02T08:40:22.082Z,85.56
2018-06-02T08:41:22.015Z,84.97
2018-06-02T08:42:22.082Z,83.86
2018-06-02T08:43:22.018Z,83.40
2018-06-02T08:44:22.084Z,84.02
2018-06-02T08:45:22.018Z,85.03
2018-06-02T08:46:22.158Z,83.51
2018-06-02T08:47:22.033Z,83.20
2018-06-02T08:48:22.089Z,83.14
2018-06-02T08:49:22.019Z,82.67
2018-06-02T08:50:22.018Z,83.33
2018-06-02T08:51:22.110Z,83.46
2018-06-02T08:52:22.111Z,83.38
2018-06-02T08:53:22.026Z,83.09
2018-06-02T08:54:22.136Z,81.90
2018-06-02T08:55:22.060Z,82.59
2018-06-02T08:56:22.027Z,82.35
2018-06-02T08:57:22.110Z,82.29
2018-06-02T08:58:22.112Z,82.21
2018-06-02T08:59:22.095Z,82.85
2018-06-02T09:00:22.120Z,83.22
2018-06-02T09:01:22.031Z,82.21
2018-06-02T09:02:21.996Z,81.82
2018-06-02T09:03:22.036Z,82.59
2018-06-02T09:04:22.089Z,83.70
2018-06-02T09:05:22.106Z,83.89
2018-06-02T09:06:22.018Z,83.49
2018-06-02T09:07:22.053Z,83.65
2018-06-02T09:08:21.976Z,85.03
2018-06-02T09:09:22.030Z,84.05
2018-06-02T09:10:22.077Z,84.44
2018-06-02T09:11:22.082Z,85.05
2018-06-02T09:12:22.084Z,84.09
2018-06-02T09:13:22.042Z,84.44
2018-06-02T09:14:22.081Z,84.63
2018-06-02T09:15:22.065Z,83.38
2018-06-02T09:16:22.143Z,84.07
2018-06-02T09:17:22.104Z,83.33
2018-06-02T09:18:22.105Z,83.33
2018-06-02T09:19:22.008Z,83.99
2018-06-02T09:20:22.033Z,84.34
2018-06-02T09:21:22.143Z,84.84
2018-06-02T09:22:22.108Z,84.44
2018-06-02T09:23:22.068Z,84.17
2018-06-02T09:24:22.142Z,84.95
2018-06-02T09:25:22.129Z,84.66
2018-06-02T09:26:22.081Z,85.19
2018-06-02T09:27:22.142Z,85.58
2018-06-02T09:28:22.016Z,85.35
2018-06-02T09:29:22.113Z,85.50
2018-06-02T09:30:22.107Z,84.71
2018-06-02T09:31:22.015Z,85.75
2018-06-02T09:32:22.113Z,85.69
2018-06-02T09:33:22.092Z,85.35
2018-06-02T09:34:22.165Z,84.17
2018-06-02T09:35:22.126Z,84.58
2018-06-02T09:36:22.117Z,84.95
2018-06-02T09:37:22.080Z,83.51
2018-06-02T09:38:22.122Z,83.01
2018-06-02T09:39:22.026Z,84.28
2018-06-02T09:40:22.024Z,83.17
2018-06-02T09:41:22.040Z,81.42
2018-06-02T09:42:22.115Z,81.84
2018-06-02T09:43:22.080Z,83.40
2018-06-02T09:44:22.112Z,82.16
2018-06-02T09:45:22.066Z,80.79
2018-06-02T09:46:22.115Z,81.45
2018-06-02T09:47:22.117Z,81.05
2018-06-02T09:48:22.030Z,79.97
2018-06-02T09:49:22.036Z,79.57
2018-06-02T09:50:22.074Z,80.39
2018-06-02T09:51:22.035Z,79.20
2018-06-02T09:52:22.074Z,79.20
2018-06-02T09:53:22.073Z,81.71
2018-06-02T09:54:22.052Z,80.57
2018-06-02T09:55:22.058Z,79.71
2018-06-02T09:56:22.119Z,78.81
2018-06-02T09:57:22.126Z,80.68
2018-06-02T09:58:22.051Z,79.86
2018-06-02T09:59:22.075Z,78.99
2018-06-02T10:00:22.132Z,78.31
2018-06-02T10:01:22.075Z,77.94
2018-06-02T10:02:22.112Z,78.70
2018-06-02T10:03:22.169Z,78.01
2018-06-02T10:04:22.108Z,78.65
2018-06-02T10:05:22.112Z,79.36
2018-06-02T10:06:22.134Z,79.86
2018-06-02T10:07:22.115Z,80.18
2018-06-02T10:08:22.137Z,80.33
2018-06-02T10:09:22.167Z,80.60
2018-06-02T10:10:22.171Z,80.79
2018-06-02T10:11:22.138Z,80.87
2018-06-02T10:12:22.063Z,80.60
2018-06-02T10:13:22.138Z,80.52
2018-06-02T10:14:22.146Z,80.97
2018-06-02T10:15:22.141Z,81.60
2018-06-02T10:16:22.129Z,81.40
2018-06-02T10:17:22.048Z,81.42
2018-06-02T10:18:22.207Z,80.94
2018-06-02T10:19:22.083Z,80.52
2018-06-02T10:20:22.187Z,81.34
2018-06-02T10:21:22.174Z,81.68
2018-06-02T10:22:22.111Z,80.87
2018-06-02T10:23:22.176Z,80.29
2018-06-02T10:24:22.114Z,81.21
2018-06-02T10:25:22.070Z,80.18
2018-06-02T10:26:22.152Z,81.18
2018-06-02T10:27:22.176Z,80.89
2018-06-02T10:28:22.091Z,79.68
2018-06-02T10:29:22.094Z,79.89
2018-06-02T10:30:22.127Z,80.31
2018-06-02T10:31:22.180Z,79.99
2018-06-02T10:32:22.213Z,80.39
2018-06-02T10:33:22.189Z,79.02
2018-06-02T10:34:22.127Z,79.33
2018-06-02T10:35:22.243Z,78.91
2018-06-02T10:36:22.159Z,78.73
2018-06-02T10:37:22.190Z,78.44
2018-06-02T10:38:22.117Z,78.36
2018-06-02T10:39:22.190Z,77.57
2018-06-02T10:40:22.160Z,77.83
2018-06-02T10:41:22.186Z,77.62
2018-06-02T10:42:22.130Z,78.52
2018-06-02T10:43:22.199Z,77.47
2018-06-02T10:44:22.232Z,78.01
2018-06-02T10:45:22.186Z,77.70
2018-06-02T10:46:22.167Z,78.20
2018-06-02T10:47:22.160Z,78.23
2018-06-02T10:48:22.200Z,77.41
2018-06-02T10:49:22.106Z,79.10
2018-06-02T10:50:22.194Z,77.78
2018-06-02T10:51:22.087Z,78.17
2018-06-02T10:52:22.189Z,76.99
2018-06-02T10:53:22.131Z,76.41
2018-06-02T10:54:22.108Z,77.54
2018-06-02T10:55:22.201Z,77.20
2018-06-02T10:56:22.208Z,76.46
2018-06-02T10:57:22.168Z,76.99
2018-06-02T10:58:22.187Z,77.89
2018-06-02T10:59:22.193Z,78.41
2018-06-02T11:00:22.106Z,78.05
2018-06-02T11:01:22.183Z,79.91
2018-06-02T11:02:22.112Z,78.05
2018-06-02T11:03:22.109Z,78.94
2018-06-02T11:04:22.110Z,78.99
2018-06-02T11:05:22.178Z,79.81
2018-06-02T11:06:22.175Z,79.49
2018-06-02T11:07:22.177Z,80.39
2018-06-02T11:08:22.178Z,80.07
2018-06-02T11:09:22.116Z,80.76
2018-06-02T11:10:22.181Z,80.81
2018-06-02T11:11:22.170Z,80.73
2018-06-02T11:12:22.104Z,80.44
2018-06-02T11:13:22.142Z,81.18
2018-06-02T11:14:22.154Z,81.82
2018-06-02T11:15:22.174Z,82.11
2018-06-02T11:16:22.144Z,81.32
2018-06-02T11:17:22.103Z,81.90
2018-06-02T11:18:22.091Z,82.16
2018-06-02T11:19:22.176Z,81.08
2018-06-02T11:20:22.180Z,79.17
2018-06-02T11:21:22.155Z,79.68
2018-06-02T11:22:22.092Z,78.83
2018-06-02T11:23:22.189Z,79.44
2018-06-02T11:24:22.235Z,79.13
2018-06-02T11:25:22.092Z,78.49
2018-06-02T11:26:22.190Z,79.47
2018-06-02T11:27:22.229Z,79.07
2018-06-02T11:28:22.203Z,79.07
2018-06-02T11:29:22.223Z,78.99
2018-06-02T11:30:22.194Z,79.55
2018-06-02T11:31:22.224Z,80.49
2018-06-02T11:32:22.234Z,80.18
2018-06-02T11:33:22.169Z,80.92
2018-06-02T11:34:22.192Z,81.02
2018-06-02T11:35:22.228Z,80.47
2018-06-02T11:36:22.166Z,79.52
2018-06-02T11:37:22.218Z,80.39
2018-06-02T11:38:22.118Z,80.92
2018-06-02T11:39:22.163Z,80.94
2018-06-02T11:40:22.258Z,80.94
2018-06-02T11:41:22.135Z,80.76
2018-06-02T11:42:22.134Z,81.18
2018-06-02T11:43:22.140Z,81.26
2018-06-02T11:44:22.298Z,81.79
2018-06-02T11:45:22.222Z,82.56
2018-06-02T11:46:22.219Z,82.40
2018-06-02T11:47:22.138Z,82.82
2018-06-02T11:48:22.137Z,81.63
2018-06-02T11:49:22.144Z,83.09
2018-06-02T11:50:22.209Z,83.40
2018-06-02T11:51:22.213Z,83.70
2018-06-02T11:52:22.133Z,83.57
2018-06-02T11:53:22.132Z,82.72
2018-06-02T11:54:22.174Z,83.04
2018-06-02T11:55:22.165Z,83.30
2018-06-02T11:56:22.273Z,82.82
2018-06-02T11:57:22.207Z,83.25
2018-06-02T11:58:22.246Z,82.77
2018-06-02T11:59:22.215Z,82.45
2018-06-02T12:00:22.114Z,81.60
2018-06-02T12:01:22.233Z,82.61
2018-06-02T12:02:22.187Z,83.14
2018-06-02T12:03:22.236Z,83.81
2018-06-02T12:04:22.125Z,83.04
2018-06-02T12:05:22.257Z,82.16
2018-06-02T12:06:22.192Z,80.21
2018-06-02T12:07:22.220Z,80.33
2018-06-02T12:08:22.281Z,80.60
2018-06-02T12:09:22.142Z,79.91
2018-06-02T12:10:22.218Z,79.20
2018-06-02T12:11:22.260Z,79.20
2018-06-02T12:12:22.256Z,78.78
2018-06-02T12:13:22.186Z,79.05
2018-06-02T12:14:22.141Z,79.02
2018-06-02T12:15:22.262Z,78.65
2018-06-02T12:16:22.232Z,78.25
2018-06-02T12:17:22.152Z,77.49
2018-06-02T12:18:22.227Z,78.20
2018-06-02T12:19:22.248Z,77.62
2018-06-02T12:20:22.248Z,77.97
2018-06-02T12:21:22.253Z,78.25
2018-06-02T12:22:22.149Z,79.07
2018-06-02T12:23:22.170Z,76.65
2018-06-02T12:24:22.198Z,77.04
2018-06-02T12:25:22.228Z,76.83
2018-06-02T12:26:22.199Z,75.81
2018-06-02T12:27:22.237Z,76.99
2018-06-02T12:28:22.293Z,78.39
2018-06-02T12:29:22.253Z,78.75
2018-06-02T12:30:22.221Z,79.23
2018-06-02T12:31:22.236Z,80.02
2018-06-02T12:32:22.235Z,78.83
2018-06-02T12:33:22.175Z,79.79
2018-06-02T12:34:22.211Z,80.57
2018-06-02T12:35:22.171Z,79.89
2018-06-02T12:36:22.240Z,80.26
2018-06-02T12:37:22.170Z,79.73
2018-06-02T12:38:22.197Z,80.15
2018-06-02T12:39:22.241Z,80.55
2018-06-02T12:40:22.175Z,80.52
2018-06-02T12:41:22.195Z,80.52
2018-06-02T12:42:22.161Z,81.00
2018-06-02T12:43:22.118Z,81.37
2018-06-02T12:44:22.163Z,81.05
2018-06-02T12:45:22.189Z,81.32
2018-06-02T12:46:22.240Z,81.18
2018-06-02T12:47:22.232Z,81.56
2018-06-02T12:48:22.285Z,81.63
2018-06-02T12:49:22.240Z,81.58
2018-06-02T12:50:22.232Z,82.08
2018-06-02T12:51:22.185Z,82.11
2018-06-02T12:52:22.147Z,82.00
2018-06-02T12:53:22.162Z,81.98